Time;durP1;ratioP1;P1;durP2;ratioP2;P2;SDS_P1;SDS_P2;PMS_P1;PMS_P2;Temp;Humidity;BMP_temperature;BMP_pressure;BME280_temperature;BME280_humidity;BME280_pressure;Samples;Min_cycle;Max_cycle;Signal;HPM_P1;HPM_P2
2023/06/23 00:02:01;;;;;;;32.40;24.25;;;;;;;29.39;71.90;100631.16;5060484;28;70181;-42
2023/06/23 00:04:33;;;;;;;35.80;24.88;;;;;;;29.37;74.83;100644.03;5055306;28;65595;-43
2023/06/23 00:07:04;;;;;;;30.50;26.00;;;;;;;29.44;74.71;100653.97;5055567;28;70030;-44
2023/06/23 00:09:37;;;;;;;30.77;24.97;;;;;;;29.36;75.58;100637.00;5040679;28;65829;-43
2023/06/23 00:12:08;;;;;;;37.88;25.92;;;;;;;29.54;75.76;100665.16;5060917;28;69641;-42
2023/06/23 00:14:40;;;;;;;32.90;28.43;;;;;;;29.55;75.66;100667.63;5054412;28;66382;-42
2023/06/23 00:17:11;;;;;;;30.80;25.70;;;;;;;29.70;75.03;100670.09;5060059;28;69856;-42
2023/06/23 00:19:42;;;;;;;28.52;23.77;;;;;;;29.78;74.24;100667.13;5057696;28;65588;-43
2023/06/23 00:22:13;;;;;;;39.65;26.50;;;;;;;29.79;75.18;100676.06;5060889;28;69301;-42
2023/06/23 00:24:45;;;;;;;27.00;24.15;;;;;;;29.88;74.99;100682.03;5058285;28;67007;-40
2023/06/23 00:27:16;;;;;;;31.83;25.23;;;;;;;29.72;75.19;100651.75;5060008;28;69355;-41
2023/06/23 00:29:48;;;;;;;34.72;25.40;;;;;;;29.81;75.32;100690.16;5041449;28;66419;-45
2023/06/23 00:32:19;;;;;;;36.33;23.63;;;;;;;29.69;75.65;100673.81;5057194;28;69661;-42
2023/06/23 00:34:50;;;;;;;31.03;23.57;;;;;;;29.78;74.03;100677.94;5059649;28;66114;-44
2023/06/23 00:37:21;;;;;;;35.15;24.95;;;;;;;29.93;74.74;100690.31;5058946;28;69034;-43
2023/06/23 00:39:52;;;;;;;28.80;22.10;;;;;;;30.03;73.78;100690.66;5058287;28;66725;-43
2023/06/23 00:42:24;;;;;;;25.53;21.17;;;;;;;30.11;73.64;100698.50;5055507;28;70104;-42
2023/06/23 00:44:55;;;;;;;24.45;19.95;;;;;;;30.07;72.84;100681.06;5042240;28;67266;-42
2023/06/23 00:47:26;;;;;;;29.77;20.23;;;;;;;30.24;72.96;100690.31;5057256;28;69968;-43
2023/06/23 00:49:58;;;;;;;27.08;19.52;;;;;;;29.72;72.81;100608.50;5057759;28;67258;-41
2023/06/23 00:52:29;;;;;;;23.92;18.30;;;;;;;30.36;72.53;100701.25;5045926;28;69588;-43
2023/06/23 00:55:03;;;;;;;18.20;15.10;;;;;;;30.24;69.19;100665.13;5058494;28;68675;-43
2023/06/23 00:57:35;;;;;;;16.77;14.40;;;;;;;30.44;68.82;100697.44;5041493;28;70097;-42
2023/06/23 01:00:19;;;;;;;15.50;13.93;;;;;;;30.36;68.47;100684.19;5065082;28;65656;-42
2023/06/23 01:02:58;;;;;;;15.73;13.98;;;;;;;30.50;68.29;100696.53;5040542;28;69588;-42
2023/06/23 01:05:39;;;;;;;14.50;13.23;;;;;;;30.40;68.27;100674.59;5048556;28;66115;-43
2023/06/23 01:08:26;;;;;;;14.93;13.52;;;;;;;30.57;67.45;100700.03;5056651;28;69614;-42
2023/06/23 01:11:19;;;;;;;15.55;13.98;;;;;;;30.36;68.30;100673.34;5058433;28;66735;-45
2023/06/23 01:14:04;;;;;;;16.67;13.05;;;;;;;29.39;67.69;100514.97;5052076;28;70659;-42
2023/06/23 01:16:53;;;;;;;13.55;12.55;;;;;;;30.22;67.54;100638.28;5058480;28;67060;-43
2023/06/23 01:19:47;;;;;;;13.40;12.38;;;;;;;30.66;67.17;100706.81;5033967;28;70632;-42
2023/06/23 01:22:37;;;;;;;12.95;11.95;;;;;;;30.68;67.24;100699.28;5039440;28;66009;-42
2023/06/23 01:25:32;;;;;;;13.05;11.98;;;;;;;30.63;67.50;100706.44;5029215;28;69460;-42
2023/06/23 01:28:19;;;;;;;12.82;11.80;;;;;;;30.49;67.13;100690.31;5036866;28;66264;-42
2023/06/23 01:30:55;;;;;;;12.70;11.45;;;;;;;30.20;66.35;100613.34;5039190;28;70162;-42
2023/06/23 01:33:37;;;;;;;12.15;11.23;;;;;;;30.80;65.84;100706.72;5038835;28;66367;-43
2023/06/23 01:36:20;;;;;;;13.00;11.50;;;;;;;30.77;65.59;100705.25;5035785;28;69803;-43
2023/06/23 01:38:58;;;;;;;11.77;10.95;;;;;;;30.87;65.29;100718.28;5034318;28;66780;-43
2023/06/23 01:41:34;;;;;;;12.63;11.32;;;;;;;30.89;65.09;100705.34;5034373;28;70496;-43
2023/06/23 01:44:14;;;;;;;11.07;10.30;;;;;;;30.91;64.86;100705.97;5031300;28;66135;-42
2023/06/23 01:46:55;;;;;;;11.40;10.38;;;;;;;30.35;65.12;100612.19;5034429;28;70435;-42
2023/06/23 01:49:31;;;;;;;11.02;10.05;;;;;;;30.37;64.98;100615.47;5023052;28;66172;-43
2023/06/23 01:52:04;;;;;;;10.23;9.63;;;;;;;31.01;64.95;100713.56;5034149;28;70483;-41
2023/06/23 01:54:40;;;;;;;10.48;9.52;;;;;;;30.45;64.40;100623.31;5034090;28;66047;-41
2023/06/23 01:57:14;;;;;;;10.15;9.45;;;;;;;30.49;64.54;100629.94;5028082;28;67921;-43
2023/06/23 01:59:47;;;;;;;9.27;8.68;;;;;;;31.08;64.43;100704.31;5046121;28;65710;-43
2023/06/23 02:02:20;;;;;;;10.60;9.65;;;;;;;30.62;64.25;100624.41;5034720;28;70332;-42
2023/06/23 02:04:54;;;;;;;9.90;9.27;;;;;;;30.97;63.96;100691.53;5043476;28;66194;-44
2023/06/23 02:07:27;;;;;;;9.20;8.50;;;;;;;31.14;64.15;100695.28;5034857;28;69817;-42
2023/06/23 02:10:01;;;;;;;9.60;8.82;;;;;;;31.19;63.87;100705.44;5032192;28;66655;-43
2023/06/23 02:12:35;;;;;;;8.95;8.43;;;;;;;31.25;63.74;100709.13;5038023;28;70259;-43
2023/06/23 02:15:08;;;;;;;8.65;8.05;;;;;;;31.24;63.69;100696.63;5034099;28;65447;-44
2023/06/23 02:17:42;;;;;;;9.45;7.60;;;;;;;31.29;63.90;100699.50;5038760;28;69651;-43
2023/06/23 02:20:15;;;;;;;8.90;8.10;;;;;;;31.30;63.73;100691.13;5036556;28;66527;-43
2023/06/23 02:22:49;;;;;;;8.73;8.23;;;;;;;31.26;63.14;100689.09;5035892;28;70094;-44
2023/06/23 02:25:22;;;;;;;8.38;7.82;;;;;;;31.25;63.13;100671.19;5040234;28;65761;-45
2023/06/23 02:27:53;;;;;;;9.10;8.50;;;;;;;31.38;62.97;100682.72;5059273;28;70485;-42
2023/06/23 02:30:28;;;;;;;8.23;7.63;;;;;;;31.36;63.30;100673.97;5065457;28;66182;-42
2023/06/23 02:32:59;;;;;;;8.05;7.32;;;;;;;31.43;62.85;100683.94;5063478;28;70101;-44
2023/06/23 02:35:30;;;;;;;8.57;7.93;;;;;;;31.33;62.90;100657.31;5061115;28;65872;-42
2023/06/23 02:38:04;;;;;;;;;;;;;;;31.16;64.08;100676.91;5059793;28;70671;-43
2023/06/23 02:40:39;;;;;;;8.77;8.18;;;;;;;31.48;62.74;100679.47;5040387;28;66558;-42
2023/06/23 02:43:10;;;;;;;8.30;7.80;;;;;;;31.52;62.96;100667.09;5058004;28;70043;-43
2023/06/23 02:45:46;;;;;;;8.80;8.20;;;;;;;31.45;62.70;100633.81;5045276;28;66731;-43
2023/06/23 02:48:21;;;;;;;8.60;7.97;;;;;;;31.43;62.70;100635.97;5062849;28;70552;-42
2023/06/23 02:50:55;;;;;;;9.10;8.40;;;;;;;31.63;62.61;100656.53;5061152;28;67051;-43
2023/06/23 02:53:35;;;;;;;8.90;8.25;;;;;;;31.45;62.23;100622.97;5042955;28;69193;-42
2023/06/23 02:56:13;;;;;;;8.35;7.80;;;;;;;31.14;62.25;100567.94;5064053;28;65490;-42
2023/06/23 02:58:47;;;;;;;8.75;8.00;;;;;;;31.75;62.30;100665.53;5046266;28;70379;-43
2023/06/23 03:01:22;;;;;;;7.22;6.82;;;;;;;31.76;62.38;100640.03;5060209;28;66230;-43
2023/06/23 03:03:56;;;;;;;8.18;7.63;;;;;;;31.75;62.04;100632.97;5062901;28;69071;-43
2023/06/23 03:06:47;;;;;;;8.90;8.30;;;;;;;31.82;61.73;100648.09;5043702;28;65184;-43
2023/06/23 03:09:19;;;;;;;7.68;7.18;;;;;;;31.81;61.98;100643.72;5062718;28;71067;-43
2023/06/23 03:11:50;;;;;;;8.23;7.73;;;;;;;31.88;62.09;100646.34;5067487;28;66624;-41
2023/06/23 03:14:21;;;;;;;8.48;7.88;;;;;;;31.80;61.93;100636.66;5064439;28;70634;-41
2023/06/23 03:16:59;;;;;;;8.77;8.05;;;;;;;31.93;61.90;100665.50;5063217;28;67264;-41
2023/06/23 03:20:29;;;;;;;7.53;7.03;;;;;;;31.86;61.68;100644.91;5041808;28;69596;-42
2023/06/23 03:23:07;;;;;;;8.18;7.40;;;;;;;31.66;61.45;100591.00;5022231;28;66656;-41
2023/06/23 03:25:42;;;;;;;8.18;7.38;;;;;;;32.05;61.18;100644.63;5058076;28;70199;-42
2023/06/23 03:28:27;;;;;;;8.15;7.47;;;;;;;31.50;61.34;100552.63;5061273;28;66343;-43
2023/06/23 03:31:05;;;;;;;7.50;6.90;;;;;;;31.75;61.20;100589.59;5042260;28;70517;-42
2023/06/23 03:33:40;;;;;;;7.97;7.30;;;;;;;31.58;61.07;100541.47;5028565;28;66704;-43
2023/06/23 03:36:21;;;;;;;7.80;7.18;;;;;;;32.16;60.88;100628.59;5060343;28;70258;-42
2023/06/23 03:39:20;;;;;;;7.43;6.93;;;;;;;32.17;60.86;100641.91;5056834;28;65805;-43
2023/06/23 03:41:52;;;;;;;8.90;7.22;;;;;;;32.24;60.72;100622.81;5060639;28;70452;-42
2023/06/23 03:44:34;;;;;;;7.45;6.82;;;;;;;31.72;60.59;100541.25;5055923;28;66331;-42
2023/06/23 03:47:14;;;;;;;7.80;7.13;;;;;;;31.86;60.46;100558.13;5058500;28;69824;-42
2023/06/23 03:50:14;;;;;;;7.03;6.63;;;;;;;32.23;60.56;100623.88;5045580;28;65969;-42
2023/06/23 03:52:45;;;;;;;7.50;6.90;;;;;;;32.39;60.62;100622.34;5061087;28;70953;-45
2023/06/23 03:55:20;;;;;;;7.00;6.60;;;;;;;32.38;60.24;100616.09;5062798;28;66847;-41
2023/06/23 03:57:52;;;;;;;7.05;6.65;;;;;;;31.88;60.36;100523.47;5060393;28;70384;-43
2023/06/23 04:00:24;;;;;;;6.68;6.28;;;;;;;32.11;60.41;100550.59;5060742;28;66124;-41
2023/06/23 04:02:57;;;;;;;;;;;;;;;32.18;61.07;100599.31;5059222;28;70784;-39
2023/06/23 04:05:31;;;;;;;;;;;;;;;32.15;61.24;100594.38;5058478;28;66122;-42
2023/06/23 04:08:04;;;;;;;6.40;6.00;;;;;;;32.35;60.53;100572.31;5064342;28;69363;-41
2023/06/23 04:10:36;;;;;;;6.93;6.38;;;;;;;32.54;60.17;100598.28;5041383;28;66553;-41
2023/06/23 04:13:09;;;;;;;7.35;6.68;;;;;;;32.51;60.12;100570.78;5059780;28;69295;-43
2023/06/23 04:15:41;;;;;;;6.65;6.05;;;;;;;32.53;59.79;100568.66;5056961;28;66157;-41
2023/06/23 04:18:13;;;;;;;;;;;;;;;32.30;60.59;100572.19;5062205;28;69191;-41
2023/06/23 04:20:45;;;;;;;6.45;6.05;;;;;;;32.56;60.12;100574.41;5061090;28;66093;-41
2023/06/23 04:23:18;;;;;;;6.93;6.40;;;;;;;32.62;59.79;100562.59;5050595;28;70462;-42
2023/06/23 04:25:51;;;;;;;6.65;6.05;;;;;;;32.60;59.54;100553.06;5062281;28;66935;-41
2023/06/23 04:28:26;;;;;;;6.70;6.10;;;;;;;32.14;59.46;100473.34;5065421;28;70403;-42
2023/06/23 04:31:01;;;;;;;6.95;6.45;;;;;;;32.58;59.37;100533.47;5057696;28;66246;-42
2023/06/23 04:33:32;;;;;;;6.60;6.13;;;;;;;32.71;59.62;100557.63;5060561;28;70381;-43
2023/06/23 04:36:20;;;;;;;6.43;5.50;;;;;;;32.20;59.11;100478.63;5065176;28;66123;-42
2023/06/23 04:39:02;;;;;;;6.63;6.13;;;;;;;32.44;59.07;100506.53;5063046;28;70398;-42
2023/06/23 04:41:34;;;;;;;;;;;;;;;32.45;59.88;100540.75;5058335;28;65796;-42
2023/06/23 04:44:09;;;;;;;6.93;6.43;;;;;;;32.72;59.37;100545.69;5059769;28;70265;-41
2023/06/23 04:46:42;;;;;;;8.82;6.03;;;;;;;32.81;58.97;100546.97;5064280;28;67458;-42
2023/06/23 04:49:20;;;;;;;6.45;6.00;;;;;;;32.76;58.88;100530.56;5057630;28;70459;-41
2023/06/23 04:51:54;;;;;;;6.60;6.10;;;;;;;32.79;59.15;100519.22;5063419;28;65692;-44
2023/06/23 04:54:39;;;;;;;6.50;6.00;;;;;;;32.81;58.91;100522.50;5057892;28;69963;-41
2023/06/23 04:57:24;;;;;;;6.43;6.03;;;;;;;32.82;58.97;100521.47;5057878;28;65754;-42
2023/06/23 05:00:00;;;;;;;6.78;6.18;;;;;;;32.77;58.94;100499.63;5059203;28;70636;-44
2023/06/23 05:02:33;;;;;;;6.72;6.13;;;;;;;32.94;58.83;100524.94;5060310;28;66704;-44
2023/06/23 05:05:07;;;;;;;6.82;6.32;;;;;;;32.96;59.01;100518.44;5058650;28;70482;-42
2023/06/23 05:07:38;;;;;;;6.50;6.00;;;;;;;32.96;58.76;100502.13;5060059;28;65941;-43
2023/06/23 05:10:09;;;;;;;;;;;;;;;32.67;59.36;100504.84;5059392;28;70259;-42
2023/06/23 05:12:42;;;;;;;6.35;5.80;;;;;;;32.99;58.88;100515.22;5054985;28;67014;-40
2023/06/23 05:15:14;;;;;;;6.10;5.70;;;;;;;32.98;58.70;100505.44;5059270;28;70156;-46
2023/06/23 05:17:47;;;;;;;6.47;5.97;;;;;;;33.01;58.74;100504.97;5060012;28;66343;-44
2023/06/23 05:20:21;;;;;;;6.72;6.28;;;;;;;32.58;58.53;100424.84;5059820;28;70136;-43
2023/06/23 05:22:56;;;;;;;6.10;5.70;;;;;;;33.11;58.44;100513.31;5059912;28;65370;-42
2023/06/23 05:25:30;;;;;;;6.32;5.82;;;;;;;33.13;58.72;100498.41;5057724;28;70340;-44
2023/06/23 05:28:04;;;;;;;6.55;5.95;;;;;;;32.75;58.49;100435.75;5060050;28;66382;-45
2023/06/23 05:30:37;;;;;;;5.82;5.43;;;;;;;32.59;58.56;100399.34;5062522;28;70126;-44
2023/06/23 05:33:11;;;;;;;6.78;6.28;;;;;;;32.60;58.36;100390.94;5060480;28;66150;-47
2023/06/23 05:35:43;;;;;;;6.38;5.80;;;;;;;33.24;58.09;100488.56;5063361;28;69631;-46
2023/06/23 05:38:19;;;;;;;5.97;5.43;;;;;;;32.66;58.17;100384.53;5058693;28;67121;-44
2023/06/23 05:40:50;;;;;;;5.47;5.18;;;;;;;33.26;58.51;100467.38;5064648;28;69799;-42
2023/06/23 05:43:20;;;;;;;5.83;5.43;;;;;;;33.28;58.37;100473.38;5062435;28;66604;-44
2023/06/23 05:45:54;;;;;;;6.28;5.88;;;;;;;33.34;57.96;100477.84;5054174;28;69533;-42
2023/06/23 05:48:59;;;;;;;6.18;5.70;;;;;;;33.24;58.26;100455.09;5038703;28;66525;-43
2023/06/23 05:51:32;;;;;;;5.60;5.15;;;;;;;32.80;58.37;100368.75;5038855;28;70036;-43
2023/06/23 05:54:11;;;;;;;5.80;5.40;;;;;;;33.40;58.04;100445.28;5060040;28;66367;-44
2023/06/23 05:56:50;;;;;;;5.50;5.20;;;;;;;33.33;57.88;100435.41;5056640;28;70301;-43
2023/06/23 05:59:27;;;;;;;6.55;5.68;;;;;;;33.51;57.71;100460.69;5063667;28;66521;-46
2023/06/23 06:02:02;;;;;;;5.68;5.28;;;;;;;33.42;57.80;100432.28;5058656;28;70126;-43
2023/06/23 06:04:38;;;;;;;5.80;5.40;;;;;;;33.10;57.76;100373.91;5060143;28;65785;-43
2023/06/23 06:07:10;;;;;;;5.22;4.88;;;;;;;33.37;57.36;100403.13;5050577;28;69595;-43
2023/06/23 06:09:43;;;;;;;5.50;5.03;;;;;;;33.65;57.68;100440.25;5058267;28;66926;-42
2023/06/23 06:12:16;;;;;;;5.03;4.70;;;;;;;33.23;57.34;100370.00;5056082;28;69092;-44
2023/06/23 06:14:48;;;;;;;5.55;5.07;;;;;;;33.60;57.47;100426.63;5057480;28;66363;-44
2023/06/23 06:17:23;;;;;;;5.72;5.30;;;;;;;33.70;57.19;100415.03;5061945;28;69588;-41
2023/06/23 06:19:59;;;;;;;5.72;5.22;;;;;;;33.31;57.19;100347.84;5061226;28;66268;-43
2023/06/23 06:22:35;;;;;;;5.75;5.25;;;;;;;33.21;56.84;100328.69;5057826;28;69477;-43
2023/06/23 06:25:08;;;;;;;6.07;5.38;;;;;;;33.36;56.89;100336.22;5062631;28;66409;-42
2023/06/23 06:27:42;;;;;;;5.18;4.88;;;;;;;33.91;57.23;100416.16;5074013;28;70491;-44
2023/06/23 06:30:17;;;;;;;5.20;4.85;;;;;;;33.86;57.21;100400.59;5062712;28;66626;-42
2023/06/23 06:32:51;;;;;;;6.00;4.78;;;;;;;33.90;56.56;100400.88;5061295;28;69721;-42
2023/06/23 06:35:23;;;;;;;5.70;5.30;;;;;;;34.04;56.93;100418.47;5070171;28;66251;-42
2023/06/23 06:37:55;;;;;;;;;;;;;;;33.79;57.10;100417.09;5062692;28;70227;-44
2023/06/23 06:40:27;;;;;;;5.10;4.65;;;;;;;34.10;56.47;100406.63;5062332;28;66090;-42
2023/06/23 06:42:58;;;;;;;4.97;4.57;;;;;;;34.16;56.41;100407.53;5073610;28;70323;-42
2023/06/23 06:45:29;;;;;;;4.53;4.22;;;;;;;34.22;56.26;100393.69;5040992;28;66137;-45
2023/06/23 06:48:05;;;;;;;4.60;4.25;;;;;;;34.28;56.23;100388.31;5065494;28;69979;-45
2023/06/23 06:50:37;;;;;;;4.80;4.50;;;;;;;34.35;56.06;100386.22;5070614;28;65572;-43
2023/06/23 06:53:09;;;;;;;;;;;;;;;34.12;56.32;100390.84;5060760;28;69588;-45
2023/06/23 06:55:41;;;;;;;5.00;4.70;;;;;;;34.40;55.95;100376.19;5068355;28;66068;-43
2023/06/23 06:58:12;;;;;;;4.20;3.90;;;;;;;34.37;55.90;100348.66;5059703;28;69996;-44
2023/06/23 07:00:44;;;;;;;5.22;4.55;;;;;;;34.54;55.56;100370.34;5070285;28;66098;-43
2023/06/23 07:03:16;;;;;;;4.45;4.10;;;;;;;34.59;55.70;100373.16;5061646;28;69322;-44
2023/06/23 07:05:47;;;;;;;4.18;3.88;;;;;;;34.64;55.09;100371.28;5064348;28;66198;-43
2023/06/23 07:08:18;;;;;;;4.10;3.83;;;;;;;34.67;55.48;100368.03;5064063;28;70450;-45
2023/06/23 07:10:49;;;;;;;4.95;4.47;;;;;;;34.74;55.50;100367.81;5061589;28;66238;-43
2023/06/23 07:13:20;;;;;;;4.07;3.77;;;;;;;34.79;55.03;100356.16;5043936;28;69682;-43
2023/06/23 07:15:52;;;;;;;4.67;4.20;;;;;;;34.68;55.26;100326.09;5066169;28;66406;-43
2023/06/23 07:18:24;;;;;;;5.00;4.47;;;;;;;34.89;55.14;100346.16;5066017;28;70406;-46
2023/06/23 07:20:55;;;;;;;6.72;3.95;;;;;;;34.94;54.80;100348.13;5056302;28;66311;-43
2023/06/23 07:23:26;;;;;;;4.40;4.10;;;;;;;34.97;54.39;100346.78;5073963;28;69627;-45
2023/06/23 07:26:00;;;;;;;4.30;3.97;;;;;;;35.00;54.22;100340.81;5062180;28;65729;-46
2023/06/23 07:28:31;;;;;;;4.07;3.83;;;;;;;34.85;54.38;100304.19;5061936;28;70335;-45
2023/06/23 07:31:03;;;;;;;4.47;4.07;;;;;;;35.08;53.99;100330.25;5066377;28;68179;-44
2023/06/23 07:33:34;;;;;;;3.60;3.30;;;;;;;35.08;54.50;100327.53;5065531;28;69393;-42
2023/06/23 07:36:05;;;;;;;3.95;3.65;;;;;;;35.12;53.86;100334.09;5064295;28;66502;-43
2023/06/23 07:38:36;;;;;;;3.35;3.15;;;;;;;35.14;54.35;100331.13;5067546;28;69598;-43
2023/06/23 07:41:07;;;;;;;4.18;3.88;;;;;;;34.86;54.38;100280.47;5063052;28;66276;-43
2023/06/23 07:43:41;;;;;;;4.87;4.47;;;;;;;35.06;54.08;100310.63;5058342;28;69612;-43
2023/06/23 07:46:12;;;;;;;4.13;3.83;;;;;;;35.23;54.03;100321.34;5072892;28;66412;-43
2023/06/23 07:48:44;;;;;;;4.15;3.78;;;;;;;35.07;54.05;100293.16;5046055;28;70158;-43
2023/06/23 07:51:15;;;;;;;4.13;3.83;;;;;;;35.24;53.30;100330.34;5068090;28;66556;-42
2023/06/23 07:53:46;;;;;;;5.38;3.83;;;;;;;35.19;53.94;100311.22;5042239;28;70654;-43
2023/06/23 07:56:34;;;;;;;3.88;3.58;;;;;;;35.25;53.41;100321.09;5059827;28;66145;-44
2023/06/23 07:59:06;;;;;;;3.92;3.63;;;;;;;35.25;53.47;100321.91;5060236;28;71375;-43
2023/06/23 08:01:36;;;;;;;6.20;4.38;;;;;;;35.29;53.91;100327.66;5059945;28;65529;-42
2023/06/23 08:04:08;;;;;;;4.93;3.80;;;;;;;35.31;53.47;100320.03;5060988;28;70158;-44
2023/06/23 08:06:39;;;;;;;4.10;3.80;;;;;;;35.33;53.94;100323.34;5063164;28;66763;-43
2023/06/23 08:09:10;;;;;;;3.80;3.60;;;;;;;35.18;53.33;100298.69;5058285;28;69603;-45
2023/06/23 08:11:41;;;;;;;4.88;4.30;;;;;;;35.32;53.69;100317.03;5059777;28;65406;-45
2023/06/23 08:14:12;;;;;;;4.67;4.10;;;;;;;35.36;53.18;100323.63;5059750;28;69712;-43
2023/06/23 08:16:43;;;;;;;3.65;3.38;;;;;;;35.38;53.89;100325.25;5061580;28;66125;-44
2023/06/23 08:19:14;;;;;;;;;;;;;;;35.10;54.02;100325.38;4979897;28;2270963;-44
2023/06/23 08:21:45;;;;;;;4.32;4.03;;;;;;;35.31;53.32;100320.03;5058816;28;66029;-42
2023/06/23 08:24:16;;;;;;;4.38;4.07;;;;;;;35.23;53.50;100290.53;5059818;28;71432;-44
2023/06/23 08:26:48;;;;;;;4.75;4.35;;;;;;;35.30;53.75;100296.56;5041859;28;65942;-42
2023/06/23 08:29:19;;;;;;;4.57;4.22;;;;;;;35.39;53.23;100316.00;5058723;28;69941;-43
2023/06/23 08:31:50;;;;;;;4.07;3.67;;;;;;;35.29;53.87;100284.03;5060464;28;65830;-45
2023/06/23 08:34:22;;;;;;;4.22;3.92;;;;;;;35.36;53.76;100284.63;5071985;28;69247;-43
2023/06/23 08:36:52;;;;;;;5.13;3.97;;;;;;;35.34;53.66;100297.69;5041920;28;66456;-43
2023/06/23 08:39:24;;;;;;;6.33;3.53;;;;;;;35.26;53.24;100279.09;5050768;28;70245;-42
2023/06/23 08:41:58;;;;;;;3.75;3.45;;;;;;;35.39;53.65;100294.19;5061450;28;66058;-47
2023/06/23 08:44:31;;;;;;;4.72;3.70;;;;;;;34.85;53.13;100208.81;5059176;28;70796;-43
2023/06/23 08:47:05;;;;;;;4.13;3.80;;;;;;;35.40;53.41;100296.63;5059520;28;66361;-43
2023/06/23 08:49:41;;;;;;;4.45;4.05;;;;;;;35.29;53.33;100284.84;5059152;28;69941;-42
2023/06/23 08:52:14;;;;;;;3.90;3.50;;;;;;;35.16;53.40;100235.44;5059622;28;66156;-43
2023/06/23 08:54:45;;;;;;;3.92;3.63;;;;;;;35.40;53.23;100285.72;5060823;28;70238;-45
2023/06/23 08:57:17;;;;;;;3.67;3.38;;;;;;;35.38;53.22;100293.34;5029474;28;66132;-46
2023/06/23 08:59:48;;;;;;;6.13;3.55;;;;;;;35.28;53.92;100271.50;5059428;28;69720;-44
2023/06/23 09:02:19;;;;;;;3.92;3.45;;;;;;;35.23;53.20;100271.47;5061603;28;67388;-43
2023/06/23 09:04:50;;;;;;;3.95;3.63;;;;;;;35.35;53.70;100299.31;5060620;28;69873;-42
2023/06/23 09:07:21;;;;;;;3.60;3.30;;;;;;;35.38;53.11;100298.78;5061050;28;67283;-43
2023/06/23 09:09:53;;;;;;;4.15;3.40;;;;;;;35.32;53.61;100297.94;5060052;28;69946;-45
2023/06/23 09:12:25;;;;;;;5.95;3.25;;;;;;;35.33;53.10;100290.63;5061071;28;66053;-43
2023/06/23 09:14:58;;;;;;;3.40;3.10;;;;;;;34.86;53.18;100210.44;5058767;28;70691;-43
2023/06/23 09:17:30;;;;;;;4.13;3.65;;;;;;;35.34;53.54;100281.34;5053390;28;66022;-44
2023/06/23 09:20:03;;;;;;;3.33;3.13;;;;;;;35.34;53.19;100287.59;5055714;28;69659;-42
2023/06/23 09:22:38;;;;;;;3.35;3.05;;;;;;;35.32;53.00;100286.22;5058419;28;65727;-42
2023/06/23 09:25:09;;;;;;;3.22;3.03;;;;;;;35.29;53.34;100297.66;5059338;28;70252;-43
2023/06/23 09:27:41;;;;;;;3.33;3.03;;;;;;;35.30;52.87;100302.03;5039016;28;66290;-45
2023/06/23 09:30:12;;;;;;;3.22;2.90;;;;;;;35.29;53.46;100309.38;5051824;28;70339;-46
2023/06/23 09:32:45;;;;;;;6.05;3.10;;;;;;;35.26;53.21;100301.75;5056814;28;66285;-43
2023/06/23 09:35:19;;;;;;;2.90;2.70;;;;;;;34.64;53.36;100207.84;5056190;28;70390;-45
2023/06/23 09:37:50;;;;;;;3.47;2.78;;;;;;;35.21;53.33;100307.16;5053545;28;65615;-43
2023/06/23 09:40:28;;;;;;;3.00;2.80;;;;;;;35.24;52.86;100308.53;5053280;28;70388;-44
2023/06/23 09:43:00;;;;;;;2.90;2.70;;;;;;;35.26;53.60;100317.28;5037206;28;66006;-44
2023/06/23 09:45:33;;;;;;;;;;;;;;;34.99;53.56;100331.78;5055676;28;69971;-44
2023/06/23 09:48:18;;;;;;;2.72;2.53;;;;;;;35.24;52.97;100341.25;5057224;28;66292;-45
2023/06/23 09:51:05;;;;;;;2.65;2.45;;;;;;;34.73;53.30;100265.38;5054430;28;70245;-45
2023/06/23 09:53:38;;;;;;;3.20;2.90;;;;;;;35.22;53.45;100349.72;5056589;28;66001;-45
2023/06/23 09:56:18;;;;;;;2.97;2.78;;;;;;;35.18;53.60;100339.59;5055030;28;70483;-46
2023/06/23 09:58:50;;;;;;;3.30;3.00;;;;;;;35.21;53.52;100328.16;5056997;28;67033;-43
2023/06/23 10:01:22;;;;;;;2.97;2.78;;;;;;;35.18;53.63;100315.06;5052338;28;69528;-43
2023/06/23 10:03:55;;;;;;;3.20;2.90;;;;;;;35.00;53.35;100287.13;5055794;28;65697;-42
2023/06/23 10:06:34;;;;;;;6.43;2.47;;;;;;;35.18;53.27;100331.41;5055530;28;70021;-45
2023/06/23 10:09:10;;;;;;;3.05;2.85;;;;;;;34.70;53.14;100241.41;5055178;28;66106;-43
2023/06/23 10:11:42;;;;;;;3.50;3.28;;;;;;;35.01;53.09;100287.94;5054701;28;70218;-43
2023/06/23 10:14:14;;;;;;;3.40;2.83;;;;;;;35.13;53.96;100321.28;5057939;28;66248;-45
2023/06/23 10:16:46;;;;;;;6.43;3.10;;;;;;;35.13;53.55;100313.09;5059064;28;69548;-44
2023/06/23 10:19:17;;;;;;;3.58;3.28;;;;;;;35.06;54.00;100313.34;5058571;28;66102;-49
2023/06/23 10:21:48;;;;;;;3.88;3.50;;;;;;;35.10;54.33;100328.09;5058347;28;69752;-46
2023/06/23 10:24:19;;;;;;;;;;;;;;;34.81;55.13;100333.03;5059710;28;65519;-47
2023/06/23 10:26:54;;;;;;;5.78;3.50;;;;;;;35.07;54.86;100353.13;5057442;28;70610;-45
2023/06/23 10:29:25;;;;;;;4.65;4.25;;;;;;;35.12;54.46;100350.44;5057606;28;65766;-43
2023/06/23 10:32:00;;;;;;;8.18;3.60;;;;;;;34.73;55.21;100303.53;5055497;28;70776;-46
2023/06/23 10:34:32;;;;;;;4.65;4.25;;;;;;;34.97;54.90;100352.22;5046684;28;64868;-45
2023/06/23 10:37:05;;;;;;;4.72;3.60;;;;;;;35.07;55.72;100364.03;5060738;28;69370;-47
2023/06/23 10:39:38;;;;;;;4.75;4.32;;;;;;;35.09;55.46;100370.06;5042430;28;66070;-45
2023/06/23 10:42:13;;;;;;;4.60;4.20;;;;;;;34.89;55.19;100348.91;5058248;28;69773;-46
2023/06/23 10:44:45;;;;;;;6.10;4.32;;;;;;;35.07;55.58;100365.94;5067523;28;66696;-47
2023/06/23 10:47:16;;;;;;;;;;;;;;;34.54;56.31;100338.47;5057756;28;69808;-45
2023/06/23 10:49:47;;;;;;;12.43;4.88;;;;;;;34.99;55.55;100375.38;5038113;28;65462;-47
2023/06/23 10:52:19;;;;;;;4.85;4.45;;;;;;;34.89;55.94;100364.44;5057625;28;70102;-46
2023/06/23 10:54:50;;;;;;;4.90;4.50;;;;;;;35.05;55.50;100398.06;5058108;28;65019;-47
2023/06/23 10:57:21;;;;;;;4.85;4.32;;;;;;;35.02;55.88;100395.84;5065217;28;70187;-49
2023/06/23 11:00:06;;;;;;;5.10;4.63;;;;;;;34.53;56.52;100342.28;5069122;28;65641;-45
2023/06/23 11:02:53;;;;;;;5.68;5.10;;;;;;;34.93;56.37;100407.22;5054135;28;69581;-47
2023/06/23 11:05:24;;;;;;;5.47;4.93;;;;;;;34.98;56.32;100411.91;5068734;28;65761;-46
2023/06/23 11:08:08;;;;;;;5.43;5.03;;;;;;;34.93;56.90;100425.50;5061915;28;70231;-47
2023/06/23 11:11:00;;;;;;;6.38;5.38;;;;;;;34.87;57.11;100431.97;5065071;28;65965;-46
2023/06/23 11:13:43;;;;;;;5.93;5.43;;;;;;;34.38;57.71;100347.56;5060845;28;70509;-47
2023/06/23 11:16:16;;;;;;;5.90;5.30;;;;;;;34.88;57.28;100433.63;5067163;28;65706;-46
2023/06/23 11:18:52;;;;;;;6.53;5.57;;;;;;;33.92;57.85;100276.31;5063198;28;69673;-46
2023/06/23 11:21:30;;;;;;;5.72;5.18;;;;;;;34.96;58.38;100457.69;5057594;28;66828;-46
2023/06/23 11:24:14;;;;;;;7.82;6.13;;;;;;;34.87;58.54;100456.50;5062517;28;70413;-44
2023/06/23 11:27:02;;;;;;;6.22;5.68;;;;;;;34.26;59.05;100370.31;5062702;28;66546;-44
2023/06/23 11:29:33;;;;;;;7.95;6.35;;;;;;;34.76;58.26;100432.97;5061726;28;70139;-47
2023/06/23 11:32:09;;;;;;;7.03;6.32;;;;;;;34.90;59.41;100456.00;5057683;28;66326;-46
2023/06/23 11:34:56;;;;;;;7.43;6.72;;;;;;;34.23;59.73;100379.00;5074718;28;69301;-45
2023/06/23 11:37:31;;;;;;;10.38;6.22;;;;;;;34.87;59.44;100475.59;5051337;28;66641;-46
2023/06/23 11:40:05;;;;;;;6.90;6.30;;;;;;;34.87;59.62;100467.41;5062428;28;70645;-45
2023/06/23 11:42:36;;;;;;;7.90;6.40;;;;;;;34.85;59.58;100470.41;5063177;28;66380;-46
2023/06/23 11:45:08;;;;;;;;;;;;;;;34.52;61.51;100474.09;5064614;28;69483;-46
2023/06/23 11:47:39;;;;;;;7.70;6.65;;;;;;;34.59;60.44;100457.59;5058915;28;66070;-45
2023/06/23 11:50:10;;;;;;;6.90;6.25;;;;;;;34.75;60.34;100481.19;5058058;28;69418;-45
2023/06/23 11:52:42;;;;;;;6.82;6.20;;;;;;;34.71;60.53;100480.03;5061759;28;66774;-45
2023/06/23 11:55:16;;;;;;;12.05;6.97;;;;;;;34.65;60.54;100465.53;5064251;28;70647;-46
2023/06/23 11:57:46;;;;;;;;;;;;;;;34.39;61.54;100471.75;5067311;28;65487;-45
2023/06/23 12:00:18;;;;;;;7.32;6.53;;;;;;;34.65;60.16;100465.53;5061781;28;69506;-46
2023/06/23 12:02:49;;;;;;;;;;;;;;;34.34;61.45;100464.34;5061917;28;65994;-45